Time;durP1;ratioP1;P1;durP2;ratioP2;P2;SDS_P1;SDS_P2;PMS_P1;PMS_P2;Temp;Humidity;BMP_temperature;BMP_pressure;BME280_temperature;BME280_humidity;BME280_pressure;Samples;Min_cycle;Max_cycle;Signal;HPM_P1;HPM_P2
2023/03/21 00:00:36;;;;;;;;;34.00;30.40;;;;;14.59;63.99;98693.44;6209522;28;96296;-63
2023/03/21 00:03:42;;;;;;;;;32.00;30.00;;;;;14.63;64.02;98705.41;6277524;27;96488;-64
2023/03/21 00:06:45;;;;;;;;;32.00;30.00;;;;;14.61;64.05;98709.47;6278270;27;96640;-63
2023/03/21 00:09:50;;;;;;;;;32.40;29.40;;;;;14.63;64.34;98710.84;6210527;28;96215;-63
2023/03/21 00:12:57;;;;;;;;;33.00;30.00;;;;;14.61;64.46;98704.03;6210859;28;96617;-64
2023/03/21 00:16:05;;;;;;;;;34.00;30.00;;;;;14.57;64.68;98703.69;6194554;28;96979;-63
2023/03/21 00:19:28;;;;;;;;;33.40;30.40;;;;;14.52;64.97;98700.09;6278106;27;96250;-63
2023/03/21 00:22:33;;;;;;;;;35.00;30.00;;;;;14.54;64.54;98696.09;6210315;28;96392;-62
2023/03/21 00:25:38;;;;;;;;;34.33;31.33;;;;;14.54;64.79;98695.25;6210633;28;96237;-63
2023/03/21 00:28:43;;;;;;;;;34.00;29.00;;;;;14.58;64.47;98697.22;6210386;28;96389;-64
2023/03/21 00:31:48;;;;;;;;;40.00;33.80;;;;;14.57;64.67;98690.16;6208677;28;96427;-57
2023/03/21 00:34:51;;;;;;;;;35.80;32.40;;;;;14.43;64.33;98666.34;6273956;27;96926;-56
2023/03/21 00:38:15;;;;;;;;;38.60;32.40;;;;;14.64;64.19;98685.38;6185503;27;97078;-56
2023/03/21 00:41:20;;;;;;;;;31.80;30.00;;;;;14.61;63.97;98680.41;6263722;27;96456;-56
2023/03/21 00:44:43;;;;;;;;;35.00;30.00;;;;;14.68;63.86;98683.78;6276325;27;96237;-56
2023/03/21 00:47:46;;;;;;;;;36.50;32.00;;;;;14.64;63.98;98681.81;6278005;27;96411;-57
2023/03/21 00:50:52;;;;;;;;;32.00;30.00;;;;;14.60;64.31;98684.22;6207350;28;96380;-57
2023/03/21 00:53:58;;;;;;;;;35.00;31.40;;;;;14.60;64.29;98681.53;6274904;27;96944;-57
2023/03/21 00:57:04;;;;;;;;;34.00;31.40;;;;;14.62;64.28;98681.25;6272702;27;96273;-56
2023/03/21 01:00:10;;;;;;;;;35.00;31.40;;;;;14.61;64.37;98685.84;6262136;27;97596;-56
2023/03/21 01:03:16;;;;;;;;;34.00;30.00;;;;;14.58;64.01;98675.50;6207495;28;96256;-56
2023/03/21 01:06:27;;;;;;;;;33.00;30.60;;;;;14.53;64.20;98670.03;6276152;27;97176;-56
2023/03/21 01:09:31;;;;;;;;;32.00;30.00;;;;;14.53;64.38;98675.44;6276868;27;96421;-56
2023/03/21 01:12:36;;;;;;;;;30.75;29.50;;;;;14.51;63.98;98674.06;6274098;27;96598;-56
2023/03/21 01:15:44;;;;;;;;;36.40;31.40;;;;;14.49;64.36;98668.06;6251522;27;96274;-56
2023/03/21 01:18:47;;;;;;;;;28.00;27.00;;;;;14.45;64.38;98670.47;6253016;27;96587;-57
2023/03/21 01:21:51;;;;;;;;;29.20;27.20;;;;;14.37;64.42;98665.47;6250662;27;98550;-56
2023/03/21 01:24:54;;;;;;;;;37.50;32.00;;;;;14.45;64.22;98673.19;6188176;28;96869;-56
2023/03/21 01:28:12;;;;;;;;;31.00;29.00;;;;;14.42;64.28;98673.66;6276944;27;96476;-56
2023/03/21 01:31:17;;;;;;;;;33.60;29.40;;;;;14.42;64.14;98670.13;6276506;27;97497;-56
2023/03/21 01:34:20;;;;;;;;;32.00;28.00;;;;;14.42;64.05;98673.66;6209199;28;96392;-56
2023/03/21 01:37:25;;;;;;;;;31.00;27.25;;;;;14.38;64.39;98669.81;6276336;27;97507;-56
2023/03/21 01:40:30;;;;;;;;;30.00;29.00;;;;;14.35;64.52;98680.31;6251115;27;96750;-56
2023/03/21 01:43:46;;;;;;;;;34.60;30.60;;;;;14.39;64.19;98676.06;6251436;27;98799;-56
2023/03/21 01:46:52;;;;;;;;;35.20;31.80;;;;;14.37;64.20;98683.66;6251169;27;96731;-56
2023/03/21 01:50:52;;;;;;;;;32.60;30.60;;;;;14.40;64.18;98675.84;6188131;27;98146;-56
2023/03/21 01:54:00;;;;;;;;;32.60;30.00;;;;;14.37;64.26;98681.75;6233981;27;97258;-56
2023/03/21 01:57:11;;;;;;;;;36.20;31.20;;;;;14.41;64.05;98673.94;6267169;27;96274;-56
2023/03/21 02:00:17;;;;;;;;;32.75;30.75;;;;;14.44;63.92;98679.66;6261759;27;96482;-56
2023/03/21 02:03:21;;;;;;;;;35.60;31.80;;;;;14.45;63.71;98675.91;6184391;28;96458;-56
2023/03/21 02:07:00;;;;;;;;;32.00;29.75;;;;;14.52;63.68;98675.69;6258427;27;96276;-56
2023/03/21 02:10:16;;;;;;;;;34.00;30.00;;;;;14.63;63.15;98682.88;6270404;27;96766;-56
2023/03/21 02:13:24;;;;;;;;;36.40;30.60;;;;;14.69;62.70;98671.03;6252904;27;96350;-56
2023/03/21 02:16:41;;;;;;;;;29.80;26.80;;;;;14.64;62.65;98660.13;6262712;27;96699;-56
2023/03/21 02:20:15;;;;;;;;;34.75;30.00;;;;;14.72;62.48;98671.34;6280549;27;96532;-56
2023/03/21 02:23:57;;;;;;;;;36.60;29.80;;;;;14.64;62.43;98655.50;6246986;27;96806;-59
2023/03/21 02:27:10;;;;;;;;;33.00;29.50;;;;;14.79;62.18;98673.88;6242893;27;96641;-56
2023/03/21 02:30:44;;;;;;;;;29.80;27.00;;;;;14.81;61.96;98668.19;6256315;27;96254;-56
2023/03/21 02:34:32;;;;;;;;;32.40;30.00;;;;;14.79;62.17;98664.91;6269262;27;96704;-57
2023/03/21 02:37:42;;;;;;;;;32.00;29.00;;;;;14.82;61.88;98672.53;6255693;27;96573;-56
2023/03/21 02:41:02;;;;;;;;;31.00;29.00;;;;;14.82;61.73;98667.91;6187233;28;96416;-56
2023/03/21 02:44:23;;;;;;;;;33.00;30.00;;;;;14.87;61.72;98672.59;6255316;27;96184;-56
2023/03/21 02:47:31;;;;;;;;;30.40;30.00;;;;;14.89;61.73;98665.03;6240476;27;97272;-58
2023/03/21 02:50:42;;;;;;;;;29.75;27.75;;;;;14.88;61.76;98666.09;6251956;27;96274;-56
2023/03/21 02:53:51;;;;;;;;;30.75;28.00;;;;;14.87;61.98;98661.72;6266231;27;96353;-56
2023/03/21 02:57:16;;;;;;;;;35.00;30.20;;;;;14.87;62.01;98662.56;6271062;27;96483;-56
2023/03/21 03:00:23;;;;;;;;;33.80;30.00;;;;;14.84;62.51;98671.22;6260549;27;96490;-56
2023/03/21 03:03:27;;;;;;;;;31.75;30.00;;;;;14.80;62.39;98669.25;6279872;27;96617;-55
2023/03/21 03:06:48;;;;;;;;;35.33;30.00;;;;;14.67;62.86;98646.84;6255959;27;96745;-55
2023/03/21 03:10:08;;;;;;;;;32.00;29.50;;;;;14.75;63.46;98667.31;6280777;27;96384;-56
2023/03/21 03:13:21;;;;;;;;;38.00;33.00;;;;;14.69;63.78;98666.44;6279328;27;96414;-56
2023/03/21 03:16:35;;;;;;;;;31.50;30.25;;;;;14.70;63.95;98665.38;6279460;27;96186;-56
2023/03/21 03:19:50;;;;;;;;;33.00;30.00;;;;;14.66;64.18;98666.91;6278784;27;96256;-56
2023/03/21 03:23:04;;;;;;;;;30.25;28.00;;;;;14.45;65.01;98665.03;6190657;28;96272;-56
2023/03/21 03:26:15;;;;;;;;;37.60;30.00;;;;;14.37;65.53;98667.38;6209414;28;96923;-56
2023/03/21 03:29:21;;;;;;;;;34.50;32.00;;;;;14.40;65.74;98672.28;6211310;28;96263;-56
2023/03/21 03:32:31;;;;;;;;;38.00;32.00;;;;;14.46;65.71;98672.13;6274287;27;96301;-55
2023/03/21 03:35:35;;;;;;;;;38.40;32.40;;;;;14.44;66.04;98666.13;6186689;28;96740;-56
2023/03/21 03:38:40;;;;;;;;;41.00;32.00;;;;;14.46;65.60;98665.88;6253376;27;96222;-56
2023/03/21 03:41:50;;;;;;;;;39.25;33.00;;;;;14.43;65.95;98677.22;6263125;27;96275;-55
2023/03/21 03:45:16;;;;;;;;;40.00;33.00;;;;;14.39;66.24;98667.94;6268460;27;96895;-57
2023/03/21 03:48:26;;;;;;;;;39.40;33.00;;;;;14.40;66.22;98670.41;6317412;27;96683;-56
2023/03/21 03:51:44;;;;;;;;;42.00;34.40;;;;;14.31;66.23;98659.16;6264639;27;96462;-55
2023/03/21 03:54:59;;;;;;;;;37.50;31.50;;;;;14.42;66.54;98676.38;6278389;27;96222;-56
2023/03/21 03:58:07;;;;;;;;;42.00;34.50;;;;;14.44;66.29;98670.72;6277358;27;96881;-55
2023/03/21 04:01:25;;;;;;;;;42.60;35.40;;;;;14.44;66.18;98671.53;6270692;27;96342;-56
2023/03/21 04:04:32;;;;;;;;;43.40;35.00;;;;;14.46;66.36;98680.25;6266875;27;96466;-56
2023/03/21 04:07:35;;;;;;;;;43.40;35.00;;;;;14.43;66.30;98680.75;6281904;27;96373;-56
2023/03/21 04:10:39;;;;;;;;;43.00;34.25;;;;;14.45;66.14;98680.50;6268197;27;96960;-55
2023/03/21 04:13:44;;;;;;;;;38.40;32.00;;;;;14.40;66.21;98677.72;6250561;27;98347;-56
2023/03/21 04:16:54;;;;;;;;;43.60;35.00;;;;;14.39;66.49;98676.06;6245421;27;96722;-56
2023/03/21 04:19:58;;;;;;;;;38.25;33.00;;;;;14.37;66.27;98675.53;6266806;27;96257;-56
2023/03/21 04:23:15;;;;;;;;;46.00;36.00;;;;;14.40;66.33;98675.00;6265898;27;96482;-55
2023/03/21 04:26:21;;;;;;;;;47.60;35.00;;;;;14.24;66.53;98655.78;6259950;27;96733;-56
2023/03/21 04:29:45;;;;;;;;;43.50;34.00;;;;;14.25;66.68;98664.75;6204419;27;96926;-56
2023/03/21 04:33:02;;;;;;;;;45.60;35.40;;;;;14.23;67.12;98672.28;6266522;27;96912;-56
2023/03/21 04:36:24;;;;;;;;;44.60;34.60;;;;;14.15;67.69;98667.31;6264420;27;96700;-56
2023/03/21 04:39:30;;;;;;;;;38.00;33.00;;;;;14.14;67.70;98671.09;6275774;27;96418;-55
2023/03/21 04:42:34;;;;;;;;;36.80;31.60;;;;;14.12;67.75;98667.81;6270123;27;96318;-56
2023/03/21 04:45:39;;;;;;;;;39.40;32.00;;;;;14.12;67.55;98678.66;6260358;27;96407;-57
2023/03/21 04:48:43;;;;;;;;;40.40;32.00;;;;;14.07;67.77;98676.72;6264142;27;96866;-57
2023/03/21 04:51:47;;;;;;;;;36.60;32.00;;;;;13.95;68.04;98658.88;6232786;27;97299;-56
2023/03/21 04:54:54;;;;;;;;;37.00;32.00;;;;;14.13;67.73;98680.28;6257441;27;97001;-58
2023/03/21 04:57:58;;;;;;;;;32.60;30.00;;;;;14.12;67.93;98684.09;6236292;27;99853;-59
2023/03/21 05:01:04;;;;;;;;;30.67;29.00;;;;;14.12;67.67;98684.09;6194542;27;97327;-57
2023/03/21 05:04:08;;;;;;;;;35.20;30.20;;;;;14.10;67.53;98683.50;6260947;27;96296;-56
2023/03/21 05:07:12;;;;;;;;;30.00;29.00;;;;;14.13;67.40;98680.28;6252086;27;96686;-56
2023/03/21 05:10:16;;;;;;;;;34.00;29.60;;;;;14.18;67.15;98688.50;6281165;27;96484;-57
2023/03/21 05:13:19;;;;;;;;;31.00;30.00;;;;;14.17;67.14;98678.75;6260391;27;96473;-57
2023/03/21 05:16:29;;;;;;;;;37.00;32.00;;;;;14.13;66.97;98683.00;6257517;27;98849;-56
2023/03/21 05:19:39;;;;;;;;;30.40;27.20;;;;;14.13;67.20;98683.00;6278826;27;99142;-56
2023/03/21 05:22:45;;;;;;;;;33.50;29.00;;;;;14.14;67.00;98685.47;6276373;27;96233;-56
2023/03/21 05:25:50;;;;;;;;;34.00;28.75;;;;;14.17;66.69;98687.66;6261551;27;96330;-58
2023/03/21 05:29:08;;;;;;;;;30.00;27.20;;;;;14.21;66.63;98688.84;6263688;27;96467;-57
2023/03/21 05:32:13;;;;;;;;;32.40;29.20;;;;;14.26;66.61;98688.09;6275796;27;96927;-56
2023/03/21 05:35:17;;;;;;;;;30.00;27.00;;;;;14.27;66.31;98687.81;6276056;27;96287;-56
2023/03/21 05:38:20;;;;;;;;;32.20;27.60;;;;;14.26;65.94;98693.50;6193444;27;96283;-57
2023/03/21 05:41:26;;;;;;;;;32.00;27.00;;;;;14.33;65.80;98688.72;6247557;27;96847;-56
2023/03/21 05:44:30;;;;;;;;;30.40;27.00;;;;;14.33;65.53;98700.38;6266123;27;96784;-56
2023/03/21 05:47:36;;;;;;;;;32.75;28.00;;;;;14.38;65.46;98707.78;6275087;27;96617;-57
2023/03/21 05:50:40;;;;;;;;;27.60;25.60;;;;;14.39;65.18;98705.91;6271509;27;96250;-56
2023/03/21 05:53:52;;;;;;;;;28.25;25.50;;;;;14.37;65.05;98714.28;6268263;27;97769;-56
2023/03/21 05:56:56;;;;;;;;;26.25;24.00;;;;;14.22;65.24;98695.88;6263751;27;96993;-57
2023/03/21 06:00:23;;;;;;;;;27.00;24.00;;;;;14.36;65.22;98720.81;6274981;27;98715;-56
2023/03/21 06:03:52;;;;;;;;;24.00;22.00;;;;;14.33;64.62;98716.66;6252701;27;97025;-56
2023/03/21 06:06:58;;;;;;;;;26.50;22.00;;;;;14.35;63.90;98723.72;6269290;27;96344;-56
2023/03/21 06:10:01;;;;;;;;;22.50;19.50;;;;;14.35;64.13;98718.28;6265844;27;96960;-56
2023/03/21 06:13:05;;;;;;;;;17.50;16.50;;;;;14.40;63.58;98715.69;6202196;28;96088;-56
2023/03/21 06:16:09;;;;;;;;;20.80;19.40;;;;;14.44;63.68;98706.78;6252932;27;96640;-56
2023/03/21 06:19:15;;;;;;;;;20.40;18.00;;;;;14.34;63.42;98712.06;6252124;27;96747;-56
2023/03/21 06:22:33;;;;;;;;;19.00;18.00;;;;;14.28;63.34;98715.75;6259042;27;96622;-56
2023/03/21 06:25:38;;;;;;;;;19.20;17.20;;;;;14.35;63.22;98715.59;6268082;27;96342;-57
2023/03/21 06:28:41;;;;;;;;;19.00;18.00;;;;;14.44;63.57;98716.81;6264569;27;96574;-56
2023/03/21 06:31:45;;;;;;;;;16.00;14.60;;;;;14.42;63.50;98717.06;6269804;27;96804;-58
2023/03/21 06:34:50;;;;;;;;;16.00;15.00;;;;;14.45;63.21;98708.44;6196770;28;96292;-57
2023/03/21 06:37:54;;;;;;;;;20.00;17.75;;;;;14.50;63.01;98711.22;6271114;27;96464;-62
2023/03/21 06:40:57;;;;;;;;;13.80;13.80;;;;;14.50;62.44;98708.50;6260532;27;97019;-62
2023/03/21 06:44:05;;;;;;;;;12.00;11.00;;;;;14.54;62.09;98712.34;6231406;27;96822;-62
2023/03/21 06:47:15;;;;;;;;;12.80;11.80;;;;;14.57;61.61;98717.28;6231966;27;96624;-62
2023/03/21 06:50:22;;;;;;;;;13.40;12.00;;;;;14.58;61.27;98718.09;6250056;27;96614;-62
2023/03/21 06:53:26;;;;;;;;;15.00;13.80;;;;;14.59;61.31;98728.69;6259593;27;96381;-63
2023/03/21 06:56:45;;;;;;;;;12.00;11.00;;;;;14.52;60.66;98721.81;6274310;27;97237;-62
2023/03/21 06:59:56;;;;;;;;;13.00;12.00;;;;;14.58;60.55;98721.63;6267735;27;96536;-62
2023/03/21 07:03:00;;;;;;;;;10.60;9.60;;;;;14.61;60.62;98718.41;6197322;28;96659;-62
2023/03/21 07:06:08;;;;;;;;;13.00;12.00;;;;;14.60;60.41;98718.69;6264757;27;97582;-62
2023/03/21 07:09:13;;;;;;;;;12.75;12.75;;;;;14.64;60.29;98727.94;6198663;28;96387;-62
2023/03/21 07:12:17;;;;;;;;;10.00;9.40;;;;;14.67;59.92;98722.84;6273526;27;96307;-62
2023/03/21 07:15:37;;;;;;;;;12.00;11.00;;;;;14.78;59.75;98723.78;6270799;27;96180;-62
2023/03/21 07:18:41;;;;;;;;;11.00;11.00;;;;;14.92;59.25;98725.03;6211242;28;96246;-62
2023/03/21 07:21:48;;;;;;;;;10.80;9.80;;;;;15.06;58.68;98723.56;6279094;27;96493;-62
2023/03/21 07:24:51;;;;;;;;;9.40;9.00;;;;;15.21;58.00;98717.47;6210942;28;96933;-62
2023/03/21 07:28:12;;;;;;;;;12.80;10.80;;;;;15.47;57.35;98721.28;6252078;27;96446;-62
2023/03/21 07:31:18;;;;;;;;;9.60;9.00;;;;;15.85;56.35;98720.28;6267307;27;96328;-62
2023/03/21 07:34:23;;;;;;;;;9.80;8.80;;;;;16.31;55.48;98713.28;6205806;28;96714;-63
2023/03/21 07:37:28;;;;;;;;;11.00;10.00;;;;;16.86;52.76;98715.47;6265865;27;96585;-63
2023/03/21 07:40:32;;;;;;;;;9.00;8.00;;;;;17.02;51.63;98717.19;6278029;27;96416;-61
2023/03/21 07:43:36;;;;;;;;;9.00;8.00;;;;;17.43;51.25;98712.66;6314084;27;96438;-63
2023/03/21 07:46:44;;;;;;;;;9.40;9.00;;;;;17.77;49.17;98715.72;6314135;27;96949;-63
2023/03/21 07:49:47;;;;;;;;;10.00;8.00;;;;;17.94;49.43;98723.59;6314701;27;97675;-63
2023/03/21 07:52:52;;;;;;;;;9.80;9.00;;;;;17.87;49.38;98723.91;6312356;27;97581;-62
2023/03/21 07:55:56;;;;;;;;;10.20;9.80;;;;;17.82;49.69;98712.16;6313804;27;96384;-63
2023/03/21 07:58:59;;;;;;;;;8.80;8.00;;;;;17.83;49.12;98724.72;6313210;27;96922;-63
2023/03/21 08:02:03;;;;;;;;;10.75;10.00;;;;;17.62;48.65;98721.16;6313407;27;96335;-63
2023/03/21 08:05:06;;;;;;;;;10.40;8.60;;;;;17.52;49.27;98719.22;6313356;27;96887;-63
2023/03/21 08:08:11;;;;;;;;;10.00;9.00;;;;;17.65;48.96;98721.41;6258964;27;96419;-63
2023/03/21 08:11:16;;;;;;;;;10.50;10.00;;;;;18.04;47.92;98718.97;6183846;28;96283;-63
2023/03/21 08:14:20;;;;;;;;;13.00;10.60;;;;;18.41;47.07;98726.03;6184334;28;96317;-63
2023/03/21 08:17:23;;;;;;;;;13.40;12.40;;;;;18.88;45.45;98722.88;6185145;28;96970;-63
2023/03/21 08:20:27;;;;;;;;;9.00;9.00;;;;;19.25;45.00;98727.91;6271297;27;96498;-63
2023/03/21 08:23:32;;;;;;;;;6.20;6.00;;;;;19.29;43.27;98728.97;6253398;27;96477;-64
2023/03/21 08:26:35;;;;;;;;;9.40;8.00;;;;;19.24;43.47;98734.47;6185764;28;96743;-63
2023/03/21 08:29:41;;;;;;;;;7.00;7.00;;;;;19.03;43.87;98726.38;6185419;28;96274;-63
2023/03/21 08:32:44;;;;;;;;;7.00;6.80;;;;;18.77;44.78;98733.03;6185839;28;96497;-63
2023/03/21 08:35:48;;;;;;;;;7.60;7.00;;;;;18.37;45.94;98723.03;6185809;28;96346;-64
2023/03/21 08:38:55;;;;;;;;;9.50;9.00;;;;;18.07;47.21;98732.06;6185826;28;96400;-63
2023/03/21 08:41:59;;;;;;;;;11.00;10.00;;;;;17.84;47.70;98740.00;6185526;28;96233;-64
2023/03/21 08:45:03;;;;;;;;;9.00;8.00;;;;;17.46;48.81;98735.81;6251207;27;99534;-64
2023/03/21 08:48:07;;;;;;;;;12.80;11.00;;;;;17.26;49.72;98742.84;6186671;28;96448;-62
2023/03/21 08:51:10;;;;;;;;;11.60;10.60;;;;;17.05;51.03;98748.53;6234957;27;98561;-62
2023/03/21 08:54:22;;;;;;;;;13.60;13.00;;;;;16.78;52.20;98738.59;6253459;27;97087;-62
2023/03/21 08:57:26;;;;;;;;;11.00;11.00;;;;;16.71;53.19;98748.09;6186013;28;96287;-62
2023/03/21 09:00:29;;;;;;;;;11.40;11.00;;;;;16.57;53.31;98757.75;6186311;28;96680;-62
2023/03/21 09:03:33;;;;;;;;;12.00;10.00;;;;;16.43;54.10;98760.97;6186247;28;96821;-62
2023/03/21 09:06:36;;;;;;;;;12.00;10.00;;;;;16.38;54.66;98765.53;6185872;28;96308;-62
2023/03/21 09:09:41;;;;;;;;;10.20;9.20;;;;;16.42;55.12;98764.75;6185895;28;96395;-62
2023/03/21 09:12:45;;;;;;;;;12.75;12.00;;;;;16.54;55.00;98761.03;6185343;28;96251;-62
2023/03/21 09:15:48;;;;;;;;;13.00;11.75;;;;;16.57;54.18;98755.03;6185853;28;96944;-62
2023/03/21 09:18:54;;;;;;;;;12.00;12.00;;;;;16.89;54.01;98763.97;6251831;27;98455;-61
2023/03/21 09:21:58;;;;;;;;;11.50;10.00;;;;;17.27;52.59;98755.41;6252480;27;96573;-62
2023/03/21 09:25:06;;;;;;;;;16.00;15.20;;;;;17.70;51.96;98761.50;6184937;28;96436;-63
2023/03/21 09:28:09;;;;;;;;;14.67;13.67;;;;;18.10;50.05;98761.53;6186350;28;96419;-62
2023/03/21 09:31:15;;;;;;;;;13.80;13.00;;;;;18.16;49.39;98762.34;6252744;27;96679;-62
2023/03/21 09:34:18;;;;;;;;;13.00;12.75;;;;;18.09;49.96;98762.63;6186225;28;96349;-62
2023/03/21 09:37:21;;;;;;;;;13.00;13.00;;;;;18.09;49.36;98764.53;6186443;28;96426;-61
2023/03/21 09:40:40;;;;;;;;;14.40;13.40;;;;;18.06;49.90;98768.63;6185848;28;97742;-63
2023/03/21 09:43:56;;;;;;;;;16.00;15.00;;;;;18.03;50.30;98758.25;6252746;27;96403;-62
2023/03/21 09:47:09;;;;;;;;;14.00;13.00;;;;;17.96;50.04;98765.91;6194068;28;96399;-62
2023/03/21 09:50:19;;;;;;;;;16.00;14.00;;;;;18.03;50.09;98760.97;6186387;28;96703;-62
2023/03/21 09:53:26;;;;;;;;;15.00;14.00;;;;;18.03;49.42;98765.63;6206379;28;96284;-63
2023/03/21 09:56:32;;;;;;;;;14.00;14.00;;;;;18.01;48.40;98749.53;6210833;28;96259;-62
2023/03/21 09:59:39;;;;;;;;;14.00;13.00;;;;;17.99;49.37;98764.53;6210544;28;96922;-62
2023/03/21 10:02:46;;;;;;;;;15.00;13.50;;;;;17.92;49.06;98758.53;6210237;28;96330;-63
2023/03/21 10:05:56;;;;;;;;;16.00;15.60;;;;;17.83;50.07;98761.00;6275979;27;96543;-62
2023/03/21 10:09:06;;;;;;;;;21.60;19.60;;;;;17.74;50.75;98751.69;6210589;28;96880;-62
2023/03/21 10:12:29;;;;;;;;;17.20;16.20;;;;;17.65;50.55;98756.88;6201214;28;96444;-63
2023/03/21 10:15:32;;;;;;;;;22.00;21.00;;;;;17.45;51.22;98764.16;6251808;27;97614;-62
2023/03/21 10:18:37;;;;;;;;;25.40;22.40;;;;;17.32;51.26;98754.59;6185144;28;96491;-62
2023/03/21 10:21:45;;;;;;;;;26.00;22.00;;;;;17.32;51.67;98763.59;6276569;27;96249;-62
2023/03/21 10:25:07;;;;;;;;;21.25;19.25;;;;;17.21;51.88;98764.63;6209901;28;96319;-62
2023/03/21 10:28:18;;;;;;;;;26.00;21.40;;;;;17.31;51.46;98763.84;6209838;28;96290;-62
2023/03/21 10:31:25;;;;;;;;;22.40;20.40;;;;;17.39;50.70;98755.16;6189653;28;96796;-62
2023/03/21 10:34:35;;;;;;;;;24.00;22.00;;;;;17.41;49.39;98757.59;6186329;28;96484;-62
2023/03/21 10:37:39;;;;;;;;;23.00;20.00;;;;;17.28;49.15;98759.75;6188708;28;96553;-63
2023/03/21 10:40:44;;;;;;;;;20.00;18.00;;;;;17.23;48.41;98764.38;6202872;28;96895;-62
2023/03/21 10:44:05;;;;;;;;;23.60;20.60;;;;;17.26;48.57;98761.91;6280723;27;97515;-62
2023/03/21 10:47:09;;;;;;;;;24.67;21.67;;;;;17.24;48.36;98758.66;6281652;27;96668;-62
2023/03/21 10:50:16;;;;;;;;;26.60;23.00;;;;;17.21;48.99;98766.53;6253685;27;96639;-62
2023/03/21 10:53:23;;;;;;;;;29.60;27.00;;;;;17.12;49.25;98762.69;6256344;27;96248;-62
2023/03/21 10:56:29;;;;;;;;;26.00;22.80;;;;;17.04;49.35;98755.03;6188614;28;96225;-62
2023/03/21 10:59:43;;;;;;;;;23.60;21.60;;;;;17.15;49.64;98764.91;6192654;27;96299;-61
2023/03/21 11:02:48;;;;;;;;;24.60;22.00;;;;;17.03;49.09;98765.13;6280370;27;96979;-62
2023/03/21 11:05:56;;;;;;;;;23.80;20.80;;;;;16.84;49.25;98769.41;6214104;28;97937;-62
2023/03/21 11:09:05;;;;;;;;;22.00;20.40;;;;;16.92;48.81;98760.72;6278725;27;96635;-62
2023/03/21 11:12:11;;;;;;;;;23.00;21.00;;;;;16.83;49.08;98757.69;6318073;27;96342;-62
2023/03/21 11:15:27;;;;;;;;;22.00;22.00;;;;;17.04;49.45;98761.31;6318232;27;96335;-62
2023/03/21 11:18:39;;;;;;;;;25.60;21.40;;;;;17.12;49.38;98766.25;6318342;27;96085;-62
2023/03/21 11:21:43;;;;;;;;;28.00;22.20;;;;;17.32;49.24;98760.03;6316144;27;96592;-60
2023/03/21 11:24:51;;;;;;;;;24.40;22.40;;;;;17.27;48.93;98763.56;6316341;27;96311;-59
2023/03/21 11:27:55;;;;;;;;;23.40;22.00;;;;;17.21;48.15;98752.91;6270470;27;97976;-59
2023/03/21 11:31:02;;;;;;;;;24.20;22.20;;;;;17.32;48.22;98760.03;6207318;28;96285;-59
2023/03/21 11:34:08;;;;;;;;;24.00;23.00;;;;;17.25;48.46;98751.31;6278781;27;97609;-59
2023/03/21 11:37:19;;;;;;;;;25.80;22.40;;;;;17.26;48.77;98752.94;6211255;28;96864;-59
2023/03/21 11:40:25;;;;;;;;;23.00;21.00;;;;;17.33;47.94;98751.59;6210864;28;96267;-59
2023/03/21 11:43:31;;;;;;;;;26.00;24.00;;;;;17.36;47.90;98749.41;6188433;28;97963;-59
2023/03/21 11:46:41;;;;;;;;;25.00;22.40;;;;;17.36;47.54;98735.78;6185009;28;97517;-59
2023/03/21 11:49:45;;;;;;;;;24.60;22.00;;;;;17.44;48.23;98751.63;6258210;27;96702;-59
2023/03/21 11:53:06;;;;;;;;;20.00;19.00;;;;;17.32;48.61;98749.97;6254400;27;96318;-59
2023/03/21 11:56:22;;;;;;;;;24.25;22.00;;;;;17.35;48.16;98743.13;6185563;28;96373;-59
2023/03/21 11:59:39;;;;;;;;;22.00;21.00;;;;;17.37;48.45;98743.69;6234248;27;96783;-59
2023/03/21 12:03:10;;;;;;;;;23.60;21.00;;;;;17.25;47.88;98733.03;6197389;28;96816;-59
2023/03/21 12:06:25;;;;;;;;;21.00;19.00;;;;;17.24;48.63;98744.22;6210723;28;96357;-59
2023/03/21 12:09:38;;;;;;;;;21.80;20.40;;;;;17.19;48.99;98746.94;6209313;28;96959;-59
2023/03/21 12:12:48;;;;;;;;;23.75;21.00;;;;;17.07;48.52;98744.44;6209573;28;96326;-59
2023/03/21 12:16:05;;;;;;;;;26.50;24.50;;;;;17.00;48.99;98734.88;6210230;28;96489;-59
2023/03/21 12:19:40;;;;;;;;;27.00;23.00;;;;;17.03;48.80;98737.06;6208695;28;96640;-59
2023/03/21 12:22:56;;;;;;;;;28.00;24.00;;;;;17.06;48.34;98728.34;6210109;28;96916;-59
2023/03/21 12:26:10;;;;;;;;;30.60;26.80;;;;;17.09;48.29;98731.38;6210179;28;96244;-59
2023/03/21 12:29:36;;;;;;;;;29.80;26.40;;;;;17.04;47.95;98725.09;6209003;28;96833;-59
2023/03/21 12:33:04;;;;;;;;;31.00;28.00;;;;;17.17;47.79;98728.13;6209731;28;96692;-59
2023/03/21 12:36:18;;;;;;;;;26.25;25.25;;;;;17.36;47.94;98717.53;6209898;28;96755;-59
2023/03/21 12:39:28;;;;;;;;;34.00;28.00;;;;;17.35;47.26;98726.00;6262758;27;96941;-59
2023/03/21 12:42:52;;;;;;;;;32.00;29.00;;;;;17.28;47.33;98721.63;6209721;28;96596;-59
2023/03/21 12:46:00;;;;;;;;;28.60;27.40;;;;;17.29;47.23;98717.00;6209430;28;96372;-59
2023/03/21 12:49:08;;;;;;;;;35.00;30.00;;;;;17.14;47.43;98715.03;6209209;28;96339;-59
2023/03/21 12:52:19;;;;;;;;;33.40;30.00;;;;;17.11;47.00;98726.47;6209631;28;96330;-59
2023/03/21 12:55:25;;;;;;;;;34.20;30.00;;;;;16.99;47.52;98720.44;6276158;27;96881;-59
2023/03/21 12:58:31;;;;;;;;;34.75;30.25;;;;;17.00;47.92;98718.53;6208518;28;96723;-59
2023/03/21 13:01:38;;;;;;;;;37.20;30.00;;;;;17.03;47.99;98715.28;6209581;28;96494;-59
2023/03/21 13:04:47;;;;;;;;;36.00;30.00;;;;;16.97;47.93;98716.34;6209898;28;96305;-58
2023/03/21 13:07:59;;;;;;;;;31.25;28.25;;;;;16.98;47.67;98713.34;6196765;27;96413;-58
2023/03/21 13:11:04;;;;;;;;;33.00;30.00;;;;;17.03;47.42;98724.25;6198285;28;96969;-59
2023/03/21 13:14:15;;;;;;;;;29.00;27.50;;;;;17.05;48.09;98721.28;6207464;28;96254;-59
2023/03/21 13:17:27;;;;;;;;;36.00;29.00;;;;;16.89;49.68;98720.41;6205712;28;96240;-59
2023/03/21 13:20:38;;;;;;;;;31.20;27.00;;;;;16.76;50.27;98710.00;6207382;28;96533;-59
2023/03/21 13:23:58;;;;;;;;;29.75;27.50;;;;;16.58;51.46;98718.59;6206927;27;96398;-59
2023/03/21 13:27:05;;;;;;;;;33.40;29.80;;;;;16.46;52.10;98710.66;6270067;27;96719;-59
2023/03/21 13:30:21;;;;;;;;;30.80;27.20;;;;;16.47;52.82;98706.81;6205163;28;96723;-58
2023/03/21 13:33:30;;;;;;;;;33.80;30.00;;;;;16.44;52.86;98704.63;6275096;27;96561;-59
2023/03/21 13:36:37;;;;;;;;;29.20;28.00;;;;;16.37;52.83;98706.78;6274493;27;96418;-59
2023/03/21 13:39:46;;;;;;;;;36.00;30.40;;;;;16.37;53.06;98702.16;6206301;27;96728;-59
2023/03/21 13:42:52;;;;;;;;;35.00;29.80;;;;;16.42;53.40;98707.63;6208072;28;96238;-59
2023/03/21 13:45:56;;;;;;;;;35.40;31.40;;;;;16.38;52.75;98703.78;6208452;28;96412;-59
2023/03/21 13:49:01;;;;;;;;;30.50;28.00;;;;;16.38;52.83;98698.34;6208409;28;96336;-60
2023/03/21 13:52:25;;;;;;;;;41.60;34.00;;;;;16.43;52.70;98701.09;6275344;27;96997;-58
2023/03/21 13:55:36;;;;;;;;;38.75;33.00;;;;;16.38;52.49;98692.91;6253764;27;96258;-58
2023/03/21 13:58:51;;;;;;;;;34.00;32.00;;;;;16.37;52.62;98693.19;6198672;28;96324;-58
2023/03/21 14:02:00;;;;;;;;;36.20;31.00;;;;;16.42;53.02;98704.91;6193530;28;96185;-59
2023/03/21 14:05:08;;;;;;;;;38.00;32.00;;;;;16.40;53.09;98701.63;6208334;28;96365;-59
2023/03/21 14:08:19;;;;;;;;;35.20;30.20;;;;;16.42;53.01;98696.72;6207964;28;96600;-59
2023/03/21 14:11:41;;;;;;;;;36.00;31.60;;;;;16.33;52.64;98692.88;6268609;27;96692;-58
2023/03/21 14:14:52;;;;;;;;;35.40;30.40;;;;;16.33;52.89;98698.31;6207937;28;96446;-59
2023/03/21 14:18:00;;;;;;;;;43.40;32.00;;;;;16.27;53.11;98693.91;6267748;27;96489;-59
2023/03/21 14:21:21;;;;;;;;;34.60;29.80;;;;;16.14;54.47;98699.00;6206432;28;96517;-58
2023/03/21 14:24:27;;;;;;;;;35.25;30.75;;;;;16.09;55.33;98699.78;6196145;28;96292;-58
2023/03/21 14:27:36;;;;;;;;;35.40;29.40;;;;;16.07;56.22;98701.97;6207680;28;96461;-58
2023/03/21 14:30:42;;;;;;;;;36.75;30.75;;;;;15.97;55.88;98707.34;6194699;28;96322;-58
2023/03/21 14:33:48;;;;;;;;;35.00;32.00;;;;;16.01;56.67;98716.63;6207799;28;96246;-58